createdAt,value
2022-11-15T00:00:24.480Z,100.00
2022-11-15T00:03:15.075Z,100.00
2022-11-15T00:06:04.985Z,100.00
2022-11-15T00:08:52.593Z,100.00
2022-11-15T00:11:40.415Z,100.00
2022-11-15T00:14:28.035Z,100.00
2022-11-15T00:17:15.783Z,100.00
2022-11-15T00:20:06.577Z,100.00
2022-11-15T00:22:54.285Z,100.00
2022-11-15T00:25:42.342Z,100.00
2022-11-15T00:28:30.432Z,100.00
2022-11-15T00:31:18.215Z,100.00
2022-11-15T00:34:06.247Z,100.00
2022-11-15T00:36:56.619Z,100.00
2022-11-15T00:39:44.321Z,100.00
2022-11-15T00:42:32.183Z,100.00
2022-11-15T00:45:20.177Z,100.00
2022-11-15T00:48:08.507Z,100.00
2022-11-15T00:50:56.379Z,100.00
2022-11-15T00:53:46.856Z,100.00
2022-11-15T00:56:34.639Z,100.00
2022-11-15T00:59:22.455Z,100.00
2022-11-15T01:02:10.144Z,100.00
2022-11-15T01:04:57.871Z,100.00
2022-11-15T01:07:45.603Z,100.00
2022-11-15T01:10:37.112Z,100.00
2022-11-15T01:13:24.925Z,100.00
2022-11-15T01:16:13.041Z,100.00
2022-11-15T01:19:00.747Z,100.00
2022-11-15T01:21:48.353Z,100.00
2022-11-15T01:24:36.092Z,100.00
2022-11-15T01:27:26.559Z,100.00
2022-11-15T01:30:14.636Z,100.00
2022-11-15T01:33:02.770Z,100.00
2022-11-15T01:35:50.686Z,100.00
2022-11-15T01:38:38.759Z,100.00
2022-11-15T01:41:27.649Z,100.00
2022-11-15T01:44:30.390Z,100.00
2022-11-15T01:47:21.039Z,100.00
2022-11-15T01:50:09.570Z,100.00
2022-11-15T01:52:57.538Z,100.00
2022-11-15T01:55:45.431Z,100.00
2022-11-15T01:58:33.159Z,100.00
2022-11-15T02:01:20.922Z,100.00
2022-11-15T02:04:13.046Z,100.00
2022-11-15T02:07:00.850Z,100.00
2022-11-15T02:09:49.277Z,100.00
2022-11-15T02:12:36.897Z,100.00
2022-11-15T02:15:24.711Z,100.00
2022-11-15T02:18:14.386Z,100.00
2022-11-15T02:21:09.856Z,100.00
2022-11-15T02:24:11.132Z,100.00
2022-11-15T02:27:12.928Z,100.00
2022-11-15T02:30:15.665Z,100.00
2022-11-15T02:33:07.670Z,100.00
2022-11-15T02:35:58.706Z,100.00
2022-11-15T02:38:48.292Z,100.00
2022-11-15T02:41:42.330Z,100.00
2022-11-15T02:44:28.079Z,100.00
2022-11-15T02:47:16.797Z,100.00
2022-11-15T02:50:08.199Z,100.00
2022-11-15T02:52:56.315Z,100.00
2022-11-15T02:55:44.937Z,100.00
2022-11-15T02:58:41.312Z,100.00
2022-11-15T03:01:32.387Z,100.00
2022-11-15T03:04:22.875Z,100.00
2022-11-15T03:07:14.789Z,100.00
2022-11-15T03:10:04.910Z,100.00
2022-11-15T03:12:54.254Z,100.00
2022-11-15T03:15:44.504Z,100.00
2022-11-15T03:18:34.494Z,100.00
2022-11-15T03:21:22.803Z,100.00
2022-11-15T03:24:13.080Z,100.00
2022-11-15T03:27:00.742Z,100.00
2022-11-15T03:29:49.382Z,100.00
2022-11-15T03:32:38.463Z,100.00
2022-11-15T03:35:26.929Z,100.00
2022-11-15T03:38:15.914Z,100.00
2022-11-15T03:41:08.071Z,100.00
2022-11-15T03:43:56.899Z,100.00
2022-11-15T03:46:46.662Z,100.00
2022-11-15T03:49:35.398Z,100.00
2022-11-15T03:52:23.957Z,100.00
2022-11-15T03:55:13.218Z,100.00
2022-11-15T03:58:04.137Z,100.00
2022-11-15T04:00:52.249Z,100.00
2022-11-15T04:03:40.240Z,100.00
2022-11-15T04:06:27.829Z,100.00
2022-11-15T04:09:15.663Z,100.00
2022-11-15T04:12:03.357Z,100.00
2022-11-15T04:15:08.138Z,100.00
2022-11-15T04:17:56.811Z,100.00
2022-11-15T04:21:12.125Z,100.00
2022-11-15T04:24:12.564Z,100.00
2022-11-15T04:27:00.699Z,100.00
2022-11-15T04:29:48.476Z,100.00
2022-11-15T04:32:38.829Z,100.00
2022-11-15T04:35:26.647Z,100.00
2022-11-15T04:38:14.642Z,100.00
2022-11-15T04:41:02.579Z,100.00
2022-11-15T04:43:50.618Z,100.00
2022-11-15T04:46:38.422Z,100.00
2022-11-15T04:49:28.737Z,100.00
2022-11-15T04:52:16.668Z,100.00
2022-11-15T04:55:08.160Z,100.00
2022-11-15T04:58:03.090Z,100.00
2022-11-15T05:00:51.174Z,100.00
2022-11-15T05:03:51.762Z,100.00
2022-11-15T05:06:42.279Z,100.00
2022-11-15T05:09:30.117Z,100.00
2022-11-15T05:12:17.943Z,100.00
2022-11-15T05:15:05.912Z,100.00
2022-11-15T05:17:54.043Z,100.00
2022-11-15T05:20:41.959Z,100.00
2022-11-15T05:23:32.749Z,100.00
2022-11-15T05:26:21.262Z,100.00
2022-11-15T05:29:09.017Z,100.00
2022-11-15T05:31:56.932Z,100.00
2022-11-15T05:34:44.770Z,100.00
2022-11-15T05:37:32.562Z,100.00
2022-11-15T05:40:23.208Z,100.00
2022-11-15T05:43:11.269Z,100.00
2022-11-15T05:45:59.074Z,100.00
2022-11-15T05:48:47.747Z,100.00
2022-11-15T05:51:35.420Z,100.00
2022-11-15T05:54:23.091Z,100.00
2022-11-15T05:57:13.651Z,100.00
2022-11-15T06:00:01.612Z,100.00
2022-11-15T06:02:49.337Z,100.00
2022-11-15T06:05:36.977Z,100.00
2022-11-15T06:08:24.789Z,100.00
2022-11-15T06:11:12.695Z,100.00
2022-11-15T06:14:03.032Z,100.00
2022-11-15T06:16:51.022Z,100.00
2022-11-15T06:19:42.382Z,100.00
2022-11-15T06:22:30.114Z,100.00
2022-11-15T06:25:18.015Z,100.00
2022-11-15T06:28:06.266Z,100.00
2022-11-15T06:30:56.587Z,100.00
2022-11-15T06:33:44.221Z,100.00
2022-11-15T06:36:32.018Z,100.00
2022-11-15T06:39:19.923Z,100.00
2022-11-15T06:42:07.935Z,100.00
2022-11-15T06:44:55.868Z,100.00
2022-11-15T06:47:50.365Z,100.00
2022-11-15T06:50:38.339Z,100.00
2022-11-15T06:53:26.141Z,100.00
2022-11-15T06:56:13.950Z,100.00
2022-11-15T06:59:01.690Z,100.00
2022-11-15T07:01:49.477Z,100.00
2022-11-15T07:04:40.457Z,100.00
2022-11-15T07:07:28.431Z,100.00
2022-11-15T07:10:16.790Z,100.00
2022-11-15T07:13:04.723Z,100.00
2022-11-15T07:15:52.742Z,100.00
2022-11-15T07:18:40.755Z,100.00
2022-11-15T07:21:31.147Z,100.00
2022-11-15T07:24:18.915Z,100.00
2022-11-15T07:27:06.758Z,100.00
2022-11-15T07:29:55.091Z,100.00
2022-11-15T07:32:42.935Z,100.00
2022-11-15T07:35:31.026Z,100.00
2022-11-15T07:38:23.030Z,100.00
2022-11-15T07:41:10.897Z,100.00
2022-11-15T07:43:58.741Z,100.00
2022-11-15T07:46:46.670Z,100.00
2022-11-15T07:49:34.545Z,100.00
2022-11-15T07:52:22.313Z,100.00
2022-11-15T07:55:13.303Z,100.00
2022-11-15T07:58:04.227Z,100.00
2022-11-15T08:00:52.040Z,100.00
2022-11-15T08:03:39.915Z,100.00
2022-11-15T08:06:27.613Z,100.00
2022-11-15T08:09:15.392Z,100.00
2022-11-15T08:12:05.762Z,100.00
2022-11-15T08:14:53.693Z,100.00
2022-11-15T08:17:41.615Z,100.00
2022-11-15T08:20:30.682Z,100.00
2022-11-15T08:23:18.569Z,100.00
2022-11-15T08:26:06.964Z,100.00
2022-11-15T08:28:57.475Z,100.00
2022-11-15T08:31:45.318Z,100.00
2022-11-15T08:34:33.306Z,100.00
2022-11-15T08:37:21.637Z,100.00
2022-11-15T08:40:10.538Z,100.00
2022-11-15T08:42:59.758Z,100.00
2022-11-15T08:45:50.246Z,100.00
2022-11-15T08:48:38.027Z,100.00
2022-11-15T08:51:25.848Z,100.00
2022-11-15T08:54:13.645Z,100.00
2022-11-15T08:57:01.414Z,100.00
2022-11-15T08:59:49.230Z,100.00
2022-11-15T09:02:39.592Z,100.00
2022-11-15T09:05:27.513Z,100.00
2022-11-15T09:08:45.557Z,100.00
2022-11-15T09:11:24.223Z,100.00
2022-11-15T09:14:14.132Z,100.00
2022-11-15T09:17:02.104Z,100.00
2022-11-15T09:19:52.702Z,100.00
2022-11-15T09:22:40.593Z,100.00
2022-11-15T09:25:28.282Z,100.00
2022-11-15T09:28:15.982Z,100.00
2022-11-15T09:31:04.639Z,100.00
2022-11-15T09:33:52.357Z,100.00
2022-11-15T09:36:42.762Z,100.00
2022-11-15T09:39:30.698Z,100.00
2022-11-15T09:42:25.948Z,99.98
2022-11-15T09:45:16.926Z,98.86
2022-11-15T09:48:19.030Z,98.86
2022-11-15T09:51:08.346Z,98.43
2022-11-15T09:54:37.397Z,97.73
2022-11-15T09:56:33.003Z,96.60
2022-11-15T09:59:08.402Z,96.83
2022-11-15T10:01:40.718Z,96.54
2022-11-15T10:04:11.920Z,96.76
2022-11-15T10:06:42.529Z,99.14
2022-11-15T10:09:19.971Z,97.43
2022-11-15T10:11:51.982Z,97.13
2022-11-15T10:14:21.971Z,96.61
2022-11-15T10:17:06.424Z,96.67
2022-11-15T10:19:38.123Z,95.59
2022-11-15T10:22:10.264Z,95.36
2022-11-15T10:24:43.753Z,93.51
2022-11-15T10:27:13.524Z,92.68
2022-11-15T10:29:46.350Z,92.66
2022-11-15T10:32:16.259Z,93.14
2022-11-15T10:34:45.574Z,92.84
2022-11-15T10:37:15.000Z,93.95
2022-11-15T10:39:46.964Z,93.49
2022-11-15T10:42:20.306Z,94.62
2022-11-15T10:44:49.594Z,93.23
2022-11-15T10:47:39.780Z,92.83
2022-11-15T10:50:11.022Z,92.32
2022-11-15T10:52:40.748Z,91.45
2022-11-15T10:55:24.565Z,90.42
2022-11-15T10:57:54.803Z,90.55
2022-11-15T11:00:31.262Z,89.29
2022-11-15T11:03:01.528Z,89.60
2022-11-15T11:05:37.889Z,88.72
2022-11-15T11:08:22.474Z,88.20
2022-11-15T11:11:02.760Z,87.27
2022-11-15T11:13:33.579Z,88.21
2022-11-15T11:16:15.546Z,86.46
2022-11-15T11:18:46.561Z,85.55
2022-11-15T11:21:17.203Z,86.57
2022-11-15T11:23:48.805Z,84.45
2022-11-15T11:26:27.269Z,83.45
2022-11-15T11:28:58.079Z,83.49
2022-11-15T11:31:29.123Z,84.42
2022-11-15T11:34:01.272Z,81.60
2022-11-15T11:36:31.425Z,82.74
2022-11-15T11:39:01.924Z,82.12
2022-11-15T11:41:41.258Z,79.79
2022-11-15T11:44:14.139Z,79.29
2022-11-15T11:46:50.967Z,81.22
2022-11-15T11:49:22.730Z,79.38
2022-11-15T11:51:53.280Z,80.29
2022-11-15T11:54:23.396Z,77.92
2022-11-15T11:56:55.426Z,79.30
2022-11-15T11:59:26.346Z,79.65
2022-11-15T12:01:55.775Z,78.63
2022-11-15T12:04:28.150Z,75.73
2022-11-15T12:06:58.634Z,76.93
2022-11-15T12:09:30.734Z,76.42
2022-11-15T12:12:04.612Z,76.29
2022-11-15T12:14:35.511Z,75.51
2022-11-15T12:17:05.182Z,74.48
2022-11-15T12:19:35.910Z,75.32
2022-11-15T12:22:06.208Z,75.74
2022-11-15T12:24:37.430Z,77.50
2022-11-15T12:27:10.722Z,77.65
2022-11-15T12:29:40.946Z,75.30
2022-11-15T12:32:15.563Z,77.02
2022-11-15T12:34:48.636Z,75.15
2022-11-15T12:37:33.017Z,77.37
2022-11-15T12:40:19.270Z,78.73
2022-11-15T12:43:03.044Z,78.02
2022-11-15T12:45:33.134Z,77.74
2022-11-15T12:48:17.473Z,75.93
2022-11-15T12:50:59.755Z,77.05
2022-11-15T12:53:32.369Z,78.53
2022-11-15T12:56:28.740Z,77.29
2022-11-15T12:59:03.254Z,77.63
2022-11-15T13:01:56.604Z,76.63
2022-11-15T13:04:27.196Z,78.75
2022-11-15T13:06:57.213Z,77.73
2022-11-15T13:09:41.595Z,77.89
2022-11-15T13:12:14.521Z,78.64
2022-11-15T13:14:50.626Z,78.33
2022-11-15T13:17:38.639Z,78.34
2022-11-15T13:20:37.983Z,77.95
2022-11-15T13:23:12.015Z,80.04
2022-11-15T13:25:49.458Z,79.27
2022-11-15T13:28:23.942Z,80.41
2022-11-15T13:30:56.286Z,79.62
2022-11-15T13:33:28.431Z,80.02
2022-11-15T13:36:01.862Z,79.75
2022-11-15T13:38:32.558Z,80.38
2022-11-15T13:41:02.437Z,82.21
2022-11-15T13:43:33.234Z,80.85
2022-11-15T13:46:13.618Z,81.36
2022-11-15T13:48:43.098Z,82.15
2022-11-15T13:51:13.935Z,82.43
2022-11-15T13:53:44.174Z,82.14
2022-11-15T13:56:13.517Z,82.74
2022-11-15T13:58:43.040Z,83.09
2022-11-15T14:01:18.137Z,83.38
2022-11-15T14:03:50.689Z,83.65
2022-11-15T14:06:21.391Z,84.74
2022-11-15T14:09:05.826Z,84.46
2022-11-15T14:11:35.209Z,84.73
2022-11-15T14:14:17.438Z,84.86
2022-11-15T14:16:50.191Z,85.40
2022-11-15T14:19:34.709Z,86.27
2022-11-15T14:22:14.265Z,86.53
2022-11-15T14:24:43.798Z,86.96
2022-11-15T14:27:19.963Z,87.72
2022-11-15T14:29:49.352Z,88.02
2022-11-15T14:32:22.177Z,88.06
2022-11-15T14:34:51.823Z,88.41
2022-11-15T14:37:26.164Z,88.46
2022-11-15T14:39:55.695Z,88.61
2022-11-15T14:42:25.653Z,89.26
2022-11-15T14:44:55.152Z,89.59
2022-11-15T14:47:27.049Z,89.30
2022-11-15T14:49:56.323Z,89.35
2022-11-15T14:52:34.301Z,89.80
2022-11-15T14:55:03.930Z,89.88
2022-11-15T14:57:33.242Z,89.71
2022-11-15T15:00:02.516Z,90.23
2022-11-15T15:02:45.011Z,89.72
2022-11-15T15:05:18.284Z,90.61
2022-11-15T15:07:48.007Z,90.39
2022-11-15T15:10:39.016Z,90.08
2022-11-15T15:13:07.355Z,90.58
2022-11-15T15:15:37.250Z,90.76
2022-11-15T15:18:09.629Z,91.02
2022-11-15T15:20:38.992Z,90.63
2022-11-15T15:23:08.330Z,90.66
2022-11-15T15:25:38.519Z,90.57
2022-11-15T15:28:07.917Z,90.26
2022-11-15T15:30:40.430Z,90.52
2022-11-15T15:33:12.912Z,91.06
2022-11-15T15:35:42.290Z,90.43
2022-11-15T15:38:12.241Z,90.67
2022-11-15T15:40:41.633Z,90.30
2022-11-15T15:43:11.335Z,90.76
2022-11-15T15:45:40.925Z,90.65
2022-11-15T15:48:14.293Z,90.66
2022-11-15T15:50:43.903Z,90.70
2022-11-15T15:53:14.005Z,90.92
2022-11-15T15:55:43.329Z,91.15
2022-11-15T15:58:12.643Z,90.92
2022-11-15T16:00:42.003Z,91.26
2022-11-15T16:03:13.885Z,91.55
2022-11-15T16:05:43.188Z,91.48
2022-11-15T16:08:14.035Z,91.92
2022-11-15T16:10:43.355Z,91.80
2022-11-15T16:13:12.619Z,92.08
2022-11-15T16:15:41.925Z,91.98
2022-11-15T16:18:16.747Z,92.69
2022-11-15T16:20:46.824Z,92.23
2022-11-15T16:23:16.714Z,92.92
2022-11-15T16:25:48.327Z,92.50
2022-11-15T16:28:21.270Z,92.93
2022-11-15T16:30:56.420Z,92.70
2022-11-15T16:33:28.985Z,93.19
2022-11-15T16:35:58.489Z,93.18
2022-11-15T16:38:27.954Z,93.09
2022-11-15T16:40:57.239Z,92.92
2022-11-15T16:43:26.575Z,93.23
2022-11-15T16:45:55.891Z,93.55
2022-11-15T16:48:25.983Z,93.26
2022-11-15T16:51:00.380Z,93.18
2022-11-15T16:53:30.058Z,93.33
2022-11-15T16:55:59.741Z,93.49
2022-11-15T16:58:29.212Z,92.91
2022-11-15T17:00:59.067Z,93.25
2022-11-15T17:03:28.509Z,93.28
2022-11-15T17:06:03.073Z,92.90
2022-11-15T17:08:32.554Z,93.22
2022-11-15T17:11:01.972Z,93.74
2022-11-15T17:13:33.336Z,93.25
2022-11-15T17:16:09.929Z,93.53
2022-11-15T17:18:39.294Z,93.33
2022-11-15T17:21:13.548Z,93.71
2022-11-15T17:23:42.870Z,93.57
2022-11-15T17:26:28.742Z,93.88
2022-11-15T17:29:00.997Z,94.16
2022-11-15T17:31:30.835Z,93.84
2022-11-15T17:34:00.186Z,93.96
2022-11-15T17:36:32.318Z,93.62
2022-11-15T17:39:01.720Z,93.84
2022-11-15T17:41:31.051Z,93.83
2022-11-15T17:44:03.092Z,94.06
2022-11-15T17:46:33.521Z,94.01
2022-11-15T17:49:02.907Z,93.98
2022-11-15T17:51:34.827Z,94.50
2022-11-15T17:54:04.137Z,93.73
2022-11-15T17:56:33.516Z,94.08
2022-11-15T17:59:03.211Z,94.29
2022-11-15T18:01:34.159Z,93.81
2022-11-15T18:04:04.041Z,93.94
2022-11-15T18:06:36.386Z,94.19
2022-11-15T18:09:07.249Z,94.54
2022-11-15T18:11:38.410Z,94.60
2022-11-15T18:14:08.698Z,94.58
2022-11-15T18:16:40.253Z,94.58
2022-11-15T18:19:13.230Z,94.97
2022-11-15T18:21:59.209Z,95.22
2022-11-15T18:24:29.450Z,96.20
2022-11-15T18:26:59.118Z,96.15
2022-11-15T18:29:28.465Z,96.62
2022-11-15T18:31:58.932Z,97.39
2022-11-15T18:34:32.251Z,98.65
2022-11-15T18:37:05.043Z,98.87
2022-11-15T18:39:34.411Z,99.92
2022-11-15T18:42:03.945Z,100.00
2022-11-15T18:44:33.283Z,100.00
2022-11-15T18:47:02.641Z,100.00
2022-11-15T18:49:32.004Z,100.00
2022-11-15T18:52:04.188Z,100.00
2022-11-15T18:54:33.551Z,100.00
2022-11-15T18:57:02.866Z,100.00
2022-11-15T18:59:32.208Z,100.00
2022-11-15T19:02:01.537Z,100.00
2022-11-15T19:04:30.989Z,100.00
2022-11-15T19:07:00.491Z,100.00
2022-11-15T19:09:33.530Z,100.00
2022-11-15T19:12:02.838Z,100.00
2022-11-15T19:14:32.187Z,100.00
2022-11-15T19:17:01.503Z,100.00
2022-11-15T19:19:31.329Z,100.00
2022-11-15T19:22:00.667Z,100.00
2022-11-15T19:24:32.847Z,100.00
2022-11-15T19:27:02.373Z,100.00
2022-11-15T19:29:31.723Z,100.00
2022-11-15T19:32:01.042Z,100.00
2022-11-15T19:34:30.351Z,100.00
2022-11-15T19:36:59.633Z,100.00
2022-11-15T19:39:29.037Z,100.00
2022-11-15T19:42:01.040Z,100.00
2022-11-15T19:44:30.477Z,100.00
2022-11-15T19:46:59.945Z,100.00
2022-11-15T19:49:29.283Z,100.00
2022-11-15T19:51:59.198Z,100.00
2022-11-15T19:54:28.481Z,100.00
2022-11-15T19:56:57.780Z,100.00
2022-11-15T19:59:29.748Z,100.00
2022-11-15T20:01:59.033Z,100.00
2022-11-15T20:04:28.365Z,100.00
2022-11-15T20:06:57.868Z,100.00
2022-11-15T20:09:28.115Z,100.00
2022-11-15T20:11:58.793Z,100.00
2022-11-15T20:14:30.752Z,100.00
2022-11-15T20:17:00.086Z,100.00
2022-11-15T20:19:29.350Z,100.00
2022-11-15T20:21:58.678Z,100.00
2022-11-15T20:24:28.234Z,100.00
2022-11-15T20:26:57.533Z,100.00
2022-11-15T20:29:26.850Z,100.00
2022-11-15T20:31:58.812Z,100.00
2022-11-15T20:34:28.385Z,100.00
2022-11-15T20:36:57.763Z,100.00
2022-11-15T20:39:27.203Z,100.00
2022-11-15T20:41:56.771Z,100.00
2022-11-15T20:44:26.190Z,100.00
2022-11-15T20:46:55.508Z,100.00
2022-11-15T20:49:28.367Z,100.00
2022-11-15T20:51:57.674Z,100.00
2022-11-15T20:54:27.003Z,100.00
2022-11-15T20:56:56.296Z,100.00
2022-11-15T20:59:25.645Z,100.00
2022-11-15T21:01:55.064Z,100.00
2022-11-15T21:04:27.013Z,100.00
2022-11-15T21:06:58.103Z,100.00
2022-11-15T21:09:40.001Z,100.00
2022-11-15T21:12:15.303Z,100.00
2022-11-15T21:14:45.074Z,100.00
2022-11-15T21:17:14.474Z,100.00
2022-11-15T21:19:47.267Z,100.00
2022-11-15T21:22:16.754Z,100.00
2022-11-15T21:24:46.074Z,100.00
2022-11-15T21:27:15.429Z,100.00
2022-11-15T21:29:45.735Z,100.00
2022-11-15T21:32:15.078Z,100.00
2022-11-15T21:34:47.148Z,100.00
2022-11-15T21:37:16.522Z,100.00
2022-11-15T21:39:45.847Z,100.00
2022-11-15T21:42:15.329Z,100.00
2022-11-15T21:44:44.688Z,100.00
2022-11-15T21:47:14.021Z,100.00
2022-11-15T21:49:43.320Z,100.00
2022-11-15T21:52:15.241Z,100.00
2022-11-15T21:54:44.573Z,100.00
2022-11-15T21:57:13.941Z,100.00
2022-11-15T22:00:03.255Z,100.00
2022-11-15T22:02:31.246Z,100.00
2022-11-15T22:05:00.571Z,100.00
2022-11-15T22:07:32.611Z,100.00
2022-11-15T22:10:02.099Z,100.00
2022-11-15T22:12:31.478Z,100.00
2022-11-15T22:15:00.785Z,100.00
2022-11-15T22:17:50.270Z,100.00
2022-11-15T22:23:11.609Z,100.00
2022-11-15T22:25:41.100Z,100.00
2022-11-15T22:28:10.498Z,100.00
2022-11-15T22:30:41.051Z,100.00
2022-11-15T22:33:10.431Z,100.00
2022-11-15T22:35:40.440Z,100.00
2022-11-15T22:38:12.489Z,100.00
2022-11-15T22:40:41.882Z,100.00
2022-11-15T22:43:12.135Z,100.00
2022-11-15T22:45:41.692Z,100.00
2022-11-15T22:48:11.091Z,100.00
2022-11-15T22:50:40.573Z,100.00
2022-11-15T22:53:12.586Z,100.00
2022-11-15T22:55:42.001Z,100.00
2022-11-15T22:58:11.412Z,100.00
2022-11-15T23:00:40.754Z,100.00
2022-11-15T23:03:10.165Z,100.00
2022-11-15T23:05:40.466Z,100.00
2022-11-15T23:08:12.423Z,100.00
2022-11-15T23:10:54.487Z,100.00
2022-11-15T23:13:23.859Z,100.00
2022-11-15T23:16:06.332Z,100.00
2022-11-15T23:18:36.534Z,100.00
2022-11-15T23:21:12.617Z,100.00
2022-11-15T23:23:42.079Z,100.00
2022-11-15T23:26:12.022Z,100.00
2022-11-15T23:28:41.387Z,100.00
2022-11-15T23:31:23.216Z,100.00
2022-11-15T23:34:01.563Z,100.00
2022-11-15T23:36:31.269Z,100.00
2022-11-15T23:39:03.500Z,100.00
2022-11-15T23:41:32.934Z,100.00
2022-11-15T23:44:02.566Z,100.00
2022-11-15T23:46:32.038Z,100.00
2022-11-15T23:49:01.387Z,100.00
2022-11-15T23:51:30.842Z,100.00
2022-11-15T23:54:02.887Z,100.00
2022-11-15T23:56:32.232Z,100.00
2022-11-15T23:59:01.684Z,100.00
